VIR10H KJFK-EGLL
Flight info
| Callsign | VIR10H |
|---|---|
| Flight time | N/A |
| Altitude | 39000 |
| Route | N0499F390 DCT BETTE DCT ACK DCT TUSKY DCT JOOPY/N0485F410 DCT |
| Aircraft | A35K/H-SDE2E3GHIJ3J4J5LM1ORWXY/LB1D1 |
Departure
| Time | 2026-05-03 23:06 |
|---|---|
| Airport | John F. Kennedy International Airport (KJFK) |
Arrival
| Time | N/A |
|---|---|
| Airport | London Heathrow Airport (EGLL) |
| Time | Latitude | Longitude | Altitude | Speed | Heading |
|---|---|---|---|---|---|
| 2026-05-03 22:12 | 40.64433 | -73.77979 | 29 ft | 0 kts | 229° |
| 2026-05-03 22:49 | 40.64437 | -73.77972 | 28 ft | 4 kts | 229° |
| 2026-05-03 22:49 | 40.64451 | -73.77951 | 27 ft | 4 kts | 238° |
| 2026-05-03 22:49 | 40.64456 | -73.77921 | 26 ft | 3 kts | 279° |
| 2026-05-03 22:49 | 40.64452 | -73.77891 | 27 ft | 4 kts | 280° |
| 2026-05-03 22:50 | 40.64448 | -73.77864 | 27 ft | 3 kts | 281° |
| 2026-05-03 22:50 | 40.64441 | -73.77829 | 28 ft | 4 kts | 290° |
| 2026-05-03 22:50 | 40.64430 | -73.77796 | 28 ft | 4 kts | 299° |
| 2026-05-03 22:50 | 40.64417 | -73.77766 | 27 ft | 4 kts | 301° |
| 2026-05-03 22:51 | 40.64405 | -73.77740 | 26 ft | 4 kts | 305° |
| 2026-05-03 22:51 | 40.64388 | -73.77713 | 27 ft | 4 kts | 316° |
| 2026-05-03 22:51 | 40.64367 | -73.77691 | 27 ft | 4 kts | 328° |
| 2026-05-03 22:51 | 40.64348 | -73.77676 | 26 ft | 4 kts | 331° |
| 2026-05-03 22:52 | 40.64324 | -73.77659 | 27 ft | 4 kts | 331° |
| 2026-05-03 22:52 | 40.64300 | -73.77641 | 28 ft | 4 kts | 331° |
| 2026-05-03 22:52 | 40.64277 | -73.77624 | 27 ft | 4 kts | 330° |
| 2026-05-03 22:52 | 40.64253 | -73.77607 | 27 ft | 4 kts | 330° |
| 2026-05-03 22:53 | 40.64230 | -73.77589 | 27 ft | 4 kts | 330° |
| 2026-05-03 22:53 | 40.64206 | -73.77572 | 27 ft | 4 kts | 330° |
| 2026-05-03 22:53 | 40.64185 | -73.77556 | 26 ft | 4 kts | 330° |
| 2026-05-03 22:53 | 40.64163 | -73.77540 | 27 ft | 4 kts | 330° |
| 2026-05-03 22:54 | 40.64139 | -73.77523 | 26 ft | 4 kts | 330° |
| 2026-05-03 22:54 | 40.64118 | -73.77509 | 28 ft | 4 kts | 345° |
| 2026-05-03 22:54 | 40.64093 | -73.77507 | 27 ft | 4 kts | 15° |
| 2026-05-03 22:54 | 40.64069 | -73.77520 | 27 ft | 2 kts | 31° |
| 2026-05-03 22:55 | 40.64048 | -73.77536 | 26 ft | 4 kts | 31° |
| 2026-05-03 22:55 | 40.64037 | -73.77545 | 27 ft | 1 kts | 31° |
| 2026-05-03 22:58 | 40.64046 | -73.77538 | 26 ft | 6 kts | 31° |
| 2026-05-03 22:59 | 40.64075 | -73.77509 | 27 ft | 8 kts | 47° |
| 2026-05-03 22:59 | 40.64078 | -73.77459 | 26 ft | 2 kts | 105° |
| 2026-05-03 22:59 | 40.64043 | -73.77387 | 28 ft | 17 kts | 126° |
| 2026-05-03 22:59 | 40.64009 | -73.77326 | 27 ft | 4 kts | 127° |
| 2026-05-03 23:00 | 40.63959 | -73.77239 | 27 ft | 18 kts | 127° |
| 2026-05-03 23:00 | 40.63892 | -73.77123 | 30 ft | 17 kts | 127° |
| 2026-05-03 23:00 | 40.63828 | -73.77014 | 31 ft | 15 kts | 128° |
| 2026-05-03 23:00 | 40.63741 | -73.76923 | 32 ft | 20 kts | 168° |
| 2026-05-03 23:01 | 40.63584 | -73.76920 | 32 ft | 24 kts | 181° |
| 2026-05-03 23:01 | 40.63433 | -73.76932 | 28 ft | 18 kts | 187° |
| 2026-05-03 23:01 | 40.63288 | -73.76950 | 28 ft | 21 kts | 180° |
| 2026-05-03 23:01 | 40.63153 | -73.76960 | 28 ft | 20 kts | 189° |
| 2026-05-03 23:02 | 40.63011 | -73.77036 | 27 ft | 20 kts | 211° |
| 2026-05-03 23:02 | 40.62984 | -73.77058 | 28 ft | 1 kts | 211° |
| 2026-05-03 23:02 | 40.62964 | -73.77074 | 29 ft | 5 kts | 211° |
| 2026-05-03 23:02 | 40.62920 | -73.77108 | 30 ft | 9 kts | 211° |
| 2026-05-03 23:03 | 40.62867 | -73.77149 | 30 ft | 11 kts | 211° |
| 2026-05-03 23:03 | 40.62828 | -73.77207 | 30 ft | 7 kts | 267° |
| 2026-05-03 23:03 | 40.62849 | -73.77281 | 30 ft | 10 kts | 296° |
| 2026-05-03 23:03 | 40.62861 | -73.77309 | 31 ft | 0 kts | 299° |
| 2026-05-03 23:05 | 40.62873 | -73.77337 | 32 ft | 15 kts | 300° |
| 2026-05-03 23:06 | 40.63049 | -73.77727 | 35 ft | 85 kts | 301° |
| 2026-05-03 23:06 | 40.63468 | -73.78651 | 32 ft | 148 kts | 300° |
| 2026-05-03 23:06 | 40.64047 | -73.79881 | 627 ft | 157 kts | 302° |
| 2026-05-03 23:06 | 40.64668 | -73.81063 | 1421 ft | 160 kts | 302° |
| 2026-05-03 23:07 | 40.64984 | -73.82565 | 1841 ft | 185 kts | 269° |
| 2026-05-03 23:07 | 40.64351 | -73.84083 | 2524 ft | 204 kts | 225° |
| 2026-05-03 23:07 | 40.63093 | -73.85028 | 3297 ft | 211 kts | 213° |
| 2026-05-03 23:07 | 40.61621 | -73.85481 | 3959 ft | 229 kts | 184° |
| 2026-05-03 23:08 | 40.60067 | -73.84846 | 4673 ft | 242 kts | 150° |
| 2026-05-03 23:08 | 40.58915 | -73.83216 | 5392 ft | 248 kts | 118° |
| 2026-05-03 23:08 | 40.58357 | -73.81048 | 6040 ft | 258 kts | 99° |
| 2026-05-03 23:08 | 40.58064 | -73.78606 | 6409 ft | 282 kts | 94° |
| 2026-05-03 23:09 | 40.57871 | -73.75978 | 6870 ft | 294 kts | 91° |
| 2026-05-03 23:09 | 40.57758 | -73.73265 | 7689 ft | 298 kts | 89° |
| 2026-05-03 23:09 | 40.57687 | -73.70540 | 8689 ft | 300 kts | 87° |
| 2026-05-03 23:09 | 40.57635 | -73.67780 | 9685 ft | 303 kts | 86° |
| 2026-05-03 23:10 | 40.57587 | -73.64983 | 10450 ft | 311 kts | 87° |
| 2026-05-03 23:10 | 40.57541 | -73.62048 | 10897 ft | 334 kts | 87° |
| 2026-05-03 23:10 | 40.57486 | -73.58870 | 11004 ft | 359 kts | 88° |
| 2026-05-03 23:10 | 40.57415 | -73.55547 | 11030 ft | 367 kts | 88° |
| 2026-05-03 23:11 | 40.57330 | -73.52158 | 11469 ft | 374 kts | 89° |
| 2026-05-03 23:11 | 40.57237 | -73.48728 | 12430 ft | 376 kts | 89° |
| 2026-05-03 23:11 | 40.57142 | -73.45271 | 13296 ft | 381 kts | 89° |
| 2026-05-03 23:11 | 40.57047 | -73.41762 | 14059 ft | 387 kts | 89° |
| 2026-05-03 23:12 | 40.56953 | -73.38192 | 14755 ft | 393 kts | 89° |
| 2026-05-03 23:12 | 40.56858 | -73.34581 | 15471 ft | 398 kts | 89° |
| 2026-05-03 23:12 | 40.56761 | -73.30917 | 16206 ft | 404 kts | 88° |
| 2026-05-03 23:12 | 40.56662 | -73.27202 | 16952 ft | 410 kts | 89° |
| 2026-05-03 23:13 | 40.56561 | -73.23431 | 17722 ft | 415 kts | 89° |
| 2026-05-03 23:13 | 40.56456 | -73.19611 | 18458 ft | 421 kts | 89° |
| 2026-05-03 23:13 | 40.56349 | -73.15739 | 19106 ft | 426 kts | 89° |
| 2026-05-03 23:13 | 40.56239 | -73.11825 | 19780 ft | 431 kts | 89° |
| 2026-05-03 23:14 | 40.56126 | -73.07866 | 20451 ft | 436 kts | 89° |
| 2026-05-03 23:14 | 40.56091 | -73.03915 | 21105 ft | 439 kts | 83° |
| 2026-05-03 23:14 | 40.56477 | -72.99950 | 21764 ft | 438 kts | 72° |
| 2026-05-03 23:14 | 40.57237 | -72.96062 | 22437 ft | 440 kts | 69° |
| 2026-05-03 23:15 | 40.58140 | -72.92198 | 23083 ft | 444 kts | 66° |
| 2026-05-03 23:15 | 40.59124 | -72.88337 | 23680 ft | 448 kts | 65° |
| 2026-05-03 23:15 | 40.60149 | -72.84450 | 24207 ft | 452 kts | 65° |
| 2026-05-03 23:15 | 40.61187 | -72.80526 | 24748 ft | 456 kts | 66° |
| 2026-05-03 23:16 | 40.62228 | -72.76562 | 25287 ft | 460 kts | 66° |
| 2026-05-03 23:16 | 40.63267 | -72.72555 | 25811 ft | 465 kts | 66° |
| 2026-05-03 23:16 | 40.64304 | -72.68510 | 26344 ft | 469 kts | 67° |
| 2026-05-03 23:16 | 40.65345 | -72.64424 | 26869 ft | 473 kts | 67° |
| 2026-05-03 23:17 | 40.66391 | -72.60297 | 27441 ft | 476 kts | 68° |
| 2026-05-03 23:17 | 40.67440 | -72.56144 | 27983 ft | 480 kts | 68° |
| 2026-05-03 23:17 | 40.68499 | -72.51947 | 28455 ft | 485 kts | 68° |
| 2026-05-03 23:17 | 40.69567 | -72.47711 | 28944 ft | 489 kts | 68° |
| 2026-05-03 23:18 | 40.70642 | -72.43439 | 29412 ft | 493 kts | 68° |
| 2026-05-03 23:18 | 40.71724 | -72.39134 | 29876 ft | 497 kts | 68° |
| 2026-05-03 23:18 | 40.72814 | -72.34786 | 30273 ft | 501 kts | 69° |
| 2026-05-03 23:18 | 40.73911 | -72.30406 | 30639 ft | 505 kts | 69° |
| 2026-05-03 23:19 | 40.75013 | -72.25999 | 30991 ft | 509 kts | 69° |
| 2026-05-03 23:19 | 40.76126 | -72.21541 | 31316 ft | 514 kts | 69° |
| 2026-05-03 23:19 | 40.77247 | -72.17043 | 31645 ft | 518 kts | 69° |
| 2026-05-03 23:19 | 40.78372 | -72.12515 | 31966 ft | 521 kts | 69° |
| 2026-05-03 23:20 | 40.79503 | -72.07955 | 32353 ft | 524 kts | 69° |
| 2026-05-03 23:20 | 40.80634 | -72.03385 | 32726 ft | 526 kts | 70° |
| 2026-05-03 23:20 | 40.81775 | -71.98769 | 33010 ft | 530 kts | 70° |
| 2026-05-03 23:20 | 40.82919 | -71.94132 | 33282 ft | 534 kts | 70° |